Time;durP1;ratioP1;P1;durP2;ratioP2;P2;SDS_P1;SDS_P2;PMS_P1;PMS_P2;Temp;Humidity;BMP_temperature;BMP_pressure;BME280_temperature;BME280_humidity;BME280_pressure;Samples;Min_cycle;Max_cycle;Signal;HPM_P1;HPM_P2
2022/12/23 00:00:58;;;;;;;6.43;6.20;;;21.50;64.10;;;;;;5017934;28;20552;-53
2022/12/23 00:03:25;;;;;;;7.43;7.10;;;21.50;64.90;;;;;;5018728;28;20461;-54
2022/12/23 00:05:52;;;;;;;7.30;7.00;;;21.50;64.30;;;;;;5018491;28;20449;-52
2022/12/23 00:08:20;;;;;;;7.00;6.70;;;21.50;64.20;;;;;;5018532;28;20477;-52
2022/12/23 00:10:48;;;;;;;7.57;7.27;;;21.50;64.00;;;;;;5018420;28;21016;-51
2022/12/23 00:16:05;;;;;;;7.73;7.53;;;21.40;64.20;;;;;;5018950;28;20421;-50
2022/12/23 00:18:33;;;;;;;7.60;7.40;;;21.40;64.10;;;;;;5017878;28;20727;-53
2022/12/23 00:21:00;;;;;;;7.20;6.90;;;21.40;64.10;;;;;;5018334;28;20580;-51
2022/12/23 00:23:27;;;;;;;7.23;6.93;;;21.40;64.10;;;;;;5018022;28;20554;-51
2022/12/23 00:25:54;;;;;;;7.30;6.93;;;21.40;64.10;;;;;;5018264;28;20460;-51
2022/12/23 00:28:23;;;;;;;7.60;7.20;;;21.40;64.30;;;;;;5017559;28;20449;-55
2022/12/23 00:30:51;;;;;;;7.03;6.70;;;21.40;64.50;;;;;;5018193;28;20449;-56
2022/12/23 00:33:21;;;;;;;7.37;7.17;;;21.40;64.50;;;;;;5018151;28;20476;-56
2022/12/23 00:35:48;;;;;;;7.00;6.80;;;21.30;64.50;;;;;;5018154;28;20452;-52
2022/12/23 00:42:52;;;;;;;6.80;6.57;;;21.30;64.70;;;;;;5017999;28;20450;-53
2022/12/23 00:43:47;;;;;;;7.00;6.73;;;21.30;64.90;;;;;;5018091;28;20512;-51
2022/12/23 00:46:14;;;;;;;6.80;6.57;;;21.30;64.60;;;;;;5018142;28;20521;-51
2022/12/23 00:51:27;;;;;;;7.80;7.60;;;21.30;64.80;;;;;;5018293;28;20473;-55
2022/12/23 00:53:54;;;;;;;7.33;7.00;;;21.30;64.80;;;;;;5017876;28;21127;-56
2022/12/23 00:56:20;;;;;;;7.13;6.90;;;21.30;64.80;;;;;;5017814;28;20544;-52
2022/12/23 00:58:47;;;;;;;7.40;7.00;;;21.30;65.00;;;;;;5017984;28;20445;-54
2022/12/23 01:06:43;;;;;;;7.50;7.20;;;21.20;65.20;;;;;;5017760;28;20436;-53
2022/12/23 01:09:10;;;;;;;6.60;6.40;;;21.20;65.30;;;;;;5017562;28;20452;-53
2022/12/23 01:11:37;;;;;;;7.03;6.83;;;21.20;65.40;;;;;;5016999;28;20478;-53
2022/12/23 01:14:04;;;;;;;6.20;6.10;;;21.20;65.60;;;;;;5017038;28;20530;-55
2022/12/23 01:16:31;;;;;;;7.20;7.00;;;21.20;66.40;;;;;;5017193;28;20886;-52
2022/12/23 01:19:00;;;;;;;9.60;7.07;;;21.20;65.70;;;;;;5016940;28;20537;-51
2022/12/23 01:21:27;;;;;;;6.90;6.70;;;21.20;65.70;;;;;;5016610;28;20576;-51
2022/12/23 01:23:53;;;;;;;7.13;7.03;;;21.10;65.40;;;;;;5017311;28;20661;-51
2022/12/23 01:26:20;;;;;;;7.03;6.73;;;21.20;65.60;;;;;;5016713;28;20540;-54
2022/12/23 01:28:47;;;;;;;7.37;7.17;;;21.10;65.50;;;;;;5016609;28;20537;-51
2022/12/23 01:31:14;;;;;;;7.17;6.97;;;21.10;65.50;;;;;;5016656;28;20446;-56
2022/12/23 01:33:41;;;;;;;6.57;6.47;;;21.10;65.60;;;;;;5015739;28;20876;-55
2022/12/23 01:36:10;;;;;;;6.90;6.80;;;21.10;65.50;;;;;;5015506;28;20454;-56
2022/12/23 01:38:37;;;;;;;7.00;6.80;;;21.10;65.60;;;;;;5015638;28;20448;-56
2022/12/23 01:41:04;;;;;;;6.43;6.33;;;21.10;65.60;;;;;;5014942;28;20536;-57
2022/12/23 01:43:48;;;;;;;6.73;6.43;;;21.10;65.60;;;;;;5015406;28;20450;-56
2022/12/23 01:46:16;;;;;;;7.87;7.43;;;21.10;65.70;;;;;;5015902;28;20446;-53
2022/12/23 01:48:47;;;;;;;7.10;6.90;;;21.00;65.60;;;;;;5016463;28;20595;-55
2022/12/23 01:51:19;;;;;;;6.60;6.50;;;21.00;65.60;;;;;;5016288;28;20438;-55
2022/12/23 01:53:49;;;;;;;7.10;6.90;;;21.00;65.60;;;;;;5015259;28;20452;-53
2022/12/23 01:56:19;;;;;;;6.87;6.67;;;21.00;65.50;;;;;;5014966;28;20972;-52
2022/12/23 01:58:50;;;;;;;6.87;6.60;;;21.00;65.50;;;;;;5015266;28;20544;-53
2022/12/23 02:04:04;;;;;;;6.97;6.77;;;21.00;65.60;;;;;;5015416;28;20440;-53
2022/12/23 02:09:22;;;;;;;6.83;6.50;;;21.00;65.60;;;;;;5016168;28;20506;-52
2022/12/23 02:12:05;;;;;;;6.93;6.63;;;20.90;65.50;;;;;;5015652;28;20466;-52
2022/12/23 02:17:36;;;;;;;6.53;6.43;;;20.90;65.20;;;;;;5015716;28;21039;-54
2022/12/23 02:20:33;;;;;;;6.80;6.60;;;20.90;65.20;;;;;;5014631;28;20450;-56
2022/12/23 02:23:26;;;;;;;7.00;6.60;;;20.90;65.30;;;;;;4998620;28;20822;-53
2022/12/23 02:26:07;;;;;;;7.07;6.87;;;20.90;65.90;;;;;;5014510;28;20446;-53
2022/12/23 02:28:59;;;;;;;6.60;6.50;;;20.80;65.80;;;;;;5014791;28;20442;-52
2022/12/23 02:31:34;;;;;;;6.40;6.20;;;20.90;66.80;;;;;;4994963;28;20459;-52
2022/12/23 02:34:08;;;;;;;7.30;7.10;;;20.90;66.90;;;;;;4995012;28;20444;-53
2022/12/23 02:36:40;;;;;;;6.80;6.60;;;20.90;66.30;;;;;;4994570;28;20993;-53
2022/12/23 02:39:10;;;;;;;6.60;6.40;;;20.90;66.40;;;;;;4994757;28;20510;-53
2022/12/23 02:41:47;;;;;;;6.57;6.40;;;20.90;66.50;;;;;;5000051;28;20481;-56
2022/12/23 02:44:21;;;;;;;7.30;7.10;;;20.90;66.60;;;;;;5015258;28;20456;-55
2022/12/23 02:46:51;;;;;;;6.40;6.30;;;20.80;66.60;;;;;;5015535;28;20485;-51
2022/12/23 02:49:23;;;;;;;6.73;6.53;;;20.80;66.90;;;;;;5014281;28;20442;-53
2022/12/23 02:51:54;;;;;;;7.10;6.80;;;20.80;66.80;;;;;;5014657;28;20572;-52
2022/12/23 02:54:26;;;;;;;7.07;6.67;;;20.80;66.90;;;;;;5014444;28;20446;-53
2022/12/23 02:56:55;;;;;;;6.40;6.20;;;20.80;66.90;;;;;;5015126;28;20442;-53
2022/12/23 02:59:26;;;;;;;6.27;6.17;;;20.80;67.10;;;;;;5014376;28;20452;-52
2022/12/23 03:01:55;;;;;;;7.47;7.27;;;20.80;66.90;;;;;;5013704;28;20481;-56
2022/12/23 03:04:21;;;;;;;7.67;7.47;;;20.80;67.10;;;;;;5013837;28;20477;-54
2022/12/23 03:06:52;;;;;;;7.03;6.90;;;20.80;67.10;;;;;;5013578;28;20540;-51
2022/12/23 03:09:25;;;;;;;7.37;7.17;;;20.80;67.30;;;;;;5013683;28;20859;-56
2022/12/23 03:12:01;;;;;;;7.90;7.70;;;20.70;67.30;;;;;;5013432;28;20466;-52
2022/12/23 03:14:40;;;;;;;7.77;7.57;;;20.70;67.50;;;;;;5013610;28;20517;-51
2022/12/23 03:17:20;;;;;;;7.50;7.40;;;20.70;67.70;;;;;;5013473;28;20810;-51
2022/12/23 03:19:52;;;;;;;7.20;7.10;;;20.70;67.70;;;;;;5013164;28;20513;-56
2022/12/23 03:22:25;;;;;;;7.10;7.00;;;20.70;67.60;;;;;;5013067;28;20486;-54
2022/12/23 03:24:58;;;;;;;7.00;6.80;;;20.70;67.80;;;;;;5012755;28;20528;-53
2022/12/23 03:27:29;;;;;;;7.80;7.63;;;20.70;67.80;;;;;;5013343;28;20442;-55
2022/12/23 03:30:00;;;;;;;7.70;7.50;;;20.70;67.90;;;;;;5012120;28;20443;-55
2022/12/23 03:32:32;;;;;;;8.13;7.93;;;20.70;68.10;;;;;;5012855;28;20527;-54
2022/12/23 03:35:02;;;;;;;7.10;7.00;;;20.70;68.00;;;;;;5014006;28;20450;-56
2022/12/23 03:37:32;;;;;;;7.30;7.20;;;20.70;67.90;;;;;;5014420;28;20445;-53
2022/12/23 03:40:03;;;;;;;8.57;8.17;;;20.60;67.80;;;;;;5014267;28;20456;-52
2022/12/23 03:42:35;;;;;;;7.23;7.13;;;20.60;67.70;;;;;;5014011;28;20484;-52
2022/12/23 03:45:07;;;;;;;7.30;7.00;;;20.60;67.70;;;;;;5013914;28;20442;-52
2022/12/23 03:47:38;;;;;;;7.43;7.30;;;20.60;67.80;;;;;;5014025;28;20456;-55
2022/12/23 03:50:09;;;;;;;7.00;6.90;;;20.60;68.00;;;;;;5013990;28;20442;-54
2022/12/23 03:52:41;;;;;;;6.97;6.87;;;20.60;68.10;;;;;;5013419;28;20470;-52
2022/12/23 03:55:14;;;;;;;6.97;6.87;;;20.60;68.00;;;;;;5013117;28;20449;-52
2022/12/23 03:57:48;;;;;;;7.40;7.20;;;20.60;67.80;;;;;;5013876;28;20442;-52
2022/12/23 04:00:15;;;;;;;7.53;7.33;;;20.60;67.70;;;;;;5013161;28;20540;-53
2022/12/23 04:02:50;;;;;;;7.60;7.40;;;20.60;67.70;;;;;;5013903;28;20494;-54
2022/12/23 04:05:25;;;;;;;7.30;7.20;;;20.50;67.60;;;;;;5014093;28;20975;-53
2022/12/23 04:07:56;;;;;;;8.10;7.80;;;20.50;67.50;;;;;;5014354;28;20457;-55
2022/12/23 04:10:24;;;;;;;7.10;7.00;;;20.50;67.50;;;;;;5015081;28;20442;-53
2022/12/23 04:12:51;;;;;;;7.30;7.10;;;20.50;67.30;;;;;;5014289;28;20989;-52
2022/12/23 04:15:22;;;;;;;6.83;6.63;;;20.50;67.20;;;;;;5013093;28;20444;-52
2022/12/23 04:17:52;;;;;;;7.13;6.90;;;20.50;67.20;;;;;;5012303;28;20450;-54
2022/12/23 04:20:19;;;;;;;8.10;7.80;;;20.50;67.10;;;;;;5012471;28;20450;-52
2022/12/23 04:22:46;;;;;;;7.13;7.03;;;20.50;67.10;;;;;;5012498;28;20485;-52
2022/12/23 04:25:14;;;;;;;7.23;7.03;;;20.50;67.00;;;;;;5012604;28;20446;-53
2022/12/23 04:27:42;;;;;;;7.40;7.20;;;20.50;67.10;;;;;;5012117;28;20452;-55
2022/12/23 04:30:11;;;;;;;7.20;7.10;;;20.50;67.10;;;;;;5012057;28;20541;-52
2022/12/23 04:32:38;;;;;;;7.13;7.03;;;20.50;67.10;;;;;;5012479;28;20473;-52
2022/12/23 04:35:07;;;;;;;7.40;7.20;;;20.50;66.90;;;;;;5012909;28;20446;-53
2022/12/23 04:37:34;;;;;;;7.00;6.80;;;20.50;67.00;;;;;;5013051;28;20450;-52
2022/12/23 04:40:01;;;;;;;7.53;7.33;;;20.50;66.90;;;;;;5012158;28;20456;-52
2022/12/23 04:42:27;;;;;;;7.07;6.87;;;20.50;67.00;;;;;;5014803;28;20489;-52
2022/12/23 04:44:54;;;;;;;7.20;7.00;;;20.50;67.10;;;;;;5016434;28;20480;-53
2022/12/23 04:47:21;;;;;;;7.03;6.93;;;20.50;67.00;;;;;;5016026;28;20446;-56
2022/12/23 04:49:48;;;;;;;7.60;7.40;;;20.40;66.90;;;;;;5015164;28;20533;-50
2022/12/23 04:52:16;;;;;;;7.63;7.43;;;20.40;66.80;;;;;;5014967;28;21096;-51
2022/12/23 04:54:44;;;;;;;7.47;7.33;;;20.40;66.50;;;;;;5015594;28;20897;-51
2022/12/23 04:57:11;;;;;;;7.37;7.17;;;20.50;66.60;;;;;;5015718;28;20446;-51
2022/12/23 04:59:39;;;;;;;7.17;7.07;;;20.40;66.40;;;;;;5015517;28;20521;-51
2022/12/23 05:02:06;;;;;;;7.87;7.57;;;20.40;66.30;;;;;;5015952;28;20576;-52
2022/12/23 05:04:33;;;;;;;7.23;7.10;;;20.40;66.20;;;;;;5015908;28;20513;-52
2022/12/23 05:07:00;;;;;;;7.37;7.27;;;20.40;66.10;;;;;;5016057;28;20837;-50
2022/12/23 05:09:28;;;;;;;7.63;7.33;;;20.40;66.00;;;;;;5016381;28;20445;-51
2022/12/23 05:11:55;;;;;;;7.50;7.30;;;20.40;66.00;;;;;;5016016;28;20548;-53
2022/12/23 05:14:22;;;;;;;7.70;7.50;;;20.40;65.90;;;;;;5016250;28;20553;-51
2022/12/23 05:16:49;;;;;;;8.83;8.63;;;20.40;65.80;;;;;;5015309;28;20537;-51
2022/12/23 05:19:15;;;;;;;7.90;7.70;;;20.40;65.80;;;;;;5015730;28;20541;-52
2022/12/23 05:21:42;;;;;;;7.60;7.40;;;20.40;65.80;;;;;;5015918;28;20554;-51
2022/12/23 05:24:09;;;;;;;7.10;7.00;;;20.40;65.60;;;;;;5016041;28;20450;-51
2022/12/23 05:26:37;;;;;;;7.20;7.10;;;20.40;65.60;;;;;;5014957;28;20445;-50
2022/12/23 05:29:04;;;;;;;7.57;7.37;;;20.40;65.50;;;;;;5014247;28;20530;-52
2022/12/23 05:31:31;;;;;;;7.60;7.40;;;20.40;65.40;;;;;;5014930;28;20469;-51
2022/12/23 05:33:58;;;;;;;7.47;7.27;;;20.40;65.40;;;;;;5015200;28;20456;-51
2022/12/23 05:36:25;;;;;;;7.87;7.67;;;20.40;65.40;;;;;;5015665;28;20509;-51
2022/12/23 05:38:52;;;;;;;7.90;7.70;;;20.40;65.30;;;;;;5015480;28;20545;-50
2022/12/23 05:41:19;;;;;;;7.87;7.67;;;20.40;65.20;;;;;;5015355;28;21044;-51
2022/12/23 05:43:47;;;;;;;7.60;7.50;;;20.40;65.20;;;;;;5015142;28;20540;-50
2022/12/23 05:46:13;;;;;;;7.77;7.60;;;20.30;65.90;;;;;;5014674;28;20553;-53
2022/12/23 05:48:40;;;;;;;7.77;7.60;;;20.30;65.00;;;;;;5014637;28;20546;-55
2022/12/23 05:51:07;;;;;;;7.87;7.77;;;20.40;65.10;;;;;;5013643;28;20889;-54
2022/12/23 05:53:34;;;;;;;7.77;7.53;;;20.30;65.00;;;;;;5012937;28;20541;-55
2022/12/23 05:56:04;;;;;;;7.47;7.37;;;20.30;65.10;;;;;;5013629;28;20545;-54
2022/12/23 05:58:31;;;;;;;7.53;7.43;;;20.30;65.10;;;;;;5013904;28;20500;-52
2022/12/23 06:01:01;;;;;;;8.13;7.93;;;20.30;65.00;;;;;;5013779;28;20446;-54
2022/12/23 06:03:28;;;;;;;8.43;8.20;;;20.30;65.00;;;;;;5014402;28;20580;-53
2022/12/23 06:05:55;;;;;;;7.70;7.60;;;20.30;65.00;;;;;;5014726;28;20444;-51
2022/12/23 06:08:22;;;;;;;7.80;7.60;;;20.30;65.00;;;;;;5015740;28;20542;-52
2022/12/23 06:10:49;;;;;;;7.10;7.00;;;20.30;65.00;;;;;;5015419;28;20454;-52
2022/12/23 06:13:15;;;;;;;7.37;7.20;;;20.30;65.70;;;;;;5015039;28;20557;-52
2022/12/23 06:15:43;;;;;;;7.60;7.40;;;20.30;65.00;;;;;;5014917;28;20457;-51
2022/12/23 06:18:11;;;;;;;7.17;7.07;;;20.30;64.90;;;;;;5015718;28;20456;-53
2022/12/23 06:20:38;;;;;;;7.77;7.57;;;20.30;64.90;;;;;;5014996;28;20537;-52
2022/12/23 06:23:05;;;;;;;7.90;7.70;;;20.30;64.90;;;;;;5014578;28;20576;-53
2022/12/23 06:25:31;;;;;;;8.03;7.83;;;20.30;64.90;;;;;;5014080;28;20814;-52
2022/12/23 06:27:58;;;;;;;7.80;7.60;;;20.30;64.80;;;;;;5013814;28;20446;-53
2022/12/23 06:30:25;;;;;;;8.00;7.80;;;20.30;64.90;;;;;;5013785;28;20453;-55
2022/12/23 06:32:52;;;;;;;7.67;7.47;;;20.30;64.80;;;;;;5013882;28;20541;-56
2022/12/23 06:35:20;;;;;;;7.30;7.20;;;20.30;64.80;;;;;;5013816;28;20886;-56
2022/12/23 06:37:47;;;;;;;7.70;7.50;;;20.30;64.90;;;;;;5013355;28;20537;-52
2022/12/23 06:40:14;;;;;;;7.50;7.30;;;20.20;64.80;;;;;;5014402;28;20446;-52
2022/12/23 06:42:41;;;;;;;7.70;7.60;;;20.20;64.70;;;;;;5015387;28;20481;-51
2022/12/23 06:45:09;;;;;;;7.43;7.27;;;20.20;64.60;;;;;;5015242;28;20540;-52
2022/12/23 06:47:36;;;;;;;7.83;7.53;;;20.20;64.60;;;;;;5014751;28;20453;-51
2022/12/23 06:50:03;;;;;;;7.83;7.53;;;20.20;64.70;;;;;;5014403;28;20450;-51
2022/12/23 06:52:31;;;;;;;8.20;8.00;;;20.20;64.80;;;;;;5014284;28;21004;-52
2022/12/23 06:54:58;;;;;;;8.10;7.90;;;20.20;64.70;;;;;;5014421;28;20529;-51
2022/12/23 06:57:24;;;;;;;7.70;7.60;;;20.20;64.70;;;;;;5014429;28;20545;-56
2022/12/23 06:59:51;;;;;;;7.90;7.70;;;20.20;64.60;;;;;;5014346;28;20544;-51
2022/12/23 07:02:18;;;;;;;7.50;7.40;;;20.20;64.60;;;;;;5014037;28;20478;-53
2022/12/23 07:04:45;;;;;;;8.07;7.97;;;20.20;64.60;;;;;;5013503;28;20536;-51
2022/12/23 07:07:12;;;;;;;8.90;8.60;;;20.20;64.60;;;;;;5013736;28;20952;-53
2022/12/23 07:09:40;;;;;;;8.47;8.27;;;20.20;64.60;;;;;;5014140;28;20460;-53
2022/12/23 07:12:07;;;;;;;8.63;8.43;;;20.20;64.60;;;;;;5011929;28;20485;-51
2022/12/23 07:14:34;;;;;;;7.80;7.70;;;20.20;64.70;;;;;;5013574;28;20442;-52
2022/12/23 07:17:01;;;;;;;7.83;7.63;;;20.20;64.90;;;;;;5013276;28;20458;-56
2022/12/23 07:19:27;;;;;;;9.13;8.83;;;20.20;65.20;;;;;;5013605;28;20460;-53
2022/12/23 07:21:54;;;;;;;7.93;7.73;;;20.20;65.10;;;;;;5014762;28;20557;-51
2022/12/23 07:24:21;;;;;;;9.60;9.20;;;20.20;65.10;;;;;;5014807;28;20446;-52
2022/12/23 07:26:50;;;;;;;8.80;8.60;;;20.20;65.20;;;;;;5014717;28;20446;-55
2022/12/23 07:29:17;;;;;;;7.80;7.60;;;20.20;65.30;;;;;;5014445;28;20446;-51
2022/12/23 07:31:44;;;;;;;8.10;7.93;;;20.20;65.30;;;;;;5015057;28;20553;-51
2022/12/23 07:34:11;;;;;;;7.70;7.50;;;20.20;65.40;;;;;;5014095;28;20573;-51
2022/12/23 07:36:37;;;;;;;8.17;7.87;;;20.20;65.30;;;;;;5014003;28;20531;-51
2022/12/23 07:39:04;;;;;;;8.93;8.63;;;20.20;65.50;;;;;;5014381;28;20508;-51
2022/12/23 07:41:31;;;;;;;8.10;8.00;;;20.20;65.40;;;;;;5015261;28;20466;-51
2022/12/23 07:43:59;;;;;;;8.57;8.27;;;20.20;65.40;;;;;;5015032;28;20525;-52
2022/12/23 07:46:26;;;;;;;8.87;8.67;;;20.20;65.60;;;;;;5014531;28;20486;-53
2022/12/23 07:48:53;;;;;;;7.90;7.70;;;20.20;65.60;;;;;;5014508;28;20545;-52
2022/12/23 07:51:20;;;;;;;8.60;8.40;;;20.10;65.90;;;;;;5013024;28;20915;-54
2022/12/23 07:53:50;;;;;;;8.40;8.20;;;20.20;66.00;;;;;;5015002;28;20445;-50
2022/12/23 07:56:17;;;;;;;8.10;7.90;;;20.10;66.10;;;;;;5014761;28;20457;-51
2022/12/23 07:58:43;;;;;;;8.20;7.90;;;20.20;66.10;;;;;;5014332;28;20477;-50
2022/12/23 08:01:11;;;;;;;7.80;7.60;;;20.20;66.20;;;;;;5014168;28;20446;-54
2022/12/23 08:03:38;;;;;;;7.00;6.80;;;20.10;65.90;;;;;;5014441;28;20928;-52
2022/12/23 08:06:07;;;;;;;7.83;7.73;;;20.10;66.10;;;;;;5014459;28;20544;-50
2022/12/23 08:08:34;;;;;;;9.20;9.00;;;20.10;66.10;;;;;;5014480;28;20450;-50
2022/12/23 08:11:03;;;;;;;8.73;8.53;;;20.10;66.20;;;;;;5014029;28;20478;-51
2022/12/23 08:13:31;;;;;;;8.70;8.50;;;20.10;66.20;;;;;;5013872;28;20545;-50
2022/12/23 08:16:00;;;;;;;8.80;8.50;;;20.10;66.30;;;;;;5014906;28;20504;-50
2022/12/23 08:18:30;;;;;;;8.80;8.50;;;20.10;67.00;;;;;;5018098;28;20537;-55
2022/12/23 08:20:58;;;;;;;8.93;8.73;;;20.10;66.20;;;;;;5018260;28;20442;-54
2022/12/23 08:23:26;;;;;;;8.20;8.00;;;20.10;66.40;;;;;;5018315;28;20489;-55
2022/12/23 08:26:00;;;;;;;8.87;8.67;;;20.10;66.30;;;;;;5018003;28;20449;-50
2022/12/23 08:28:27;;;;;;;8.10;7.90;;;20.10;66.40;;;;;;5018379;28;20999;-51
2022/12/23 08:30:54;;;;;;;8.77;8.57;;;20.10;66.30;;;;;;5017265;28;20456;-51
2022/12/23 08:33:21;;;;;;;9.17;8.77;;;20.10;66.60;;;;;;5018014;28;20973;-51
2022/12/23 08:35:53;;;;;;;8.33;8.03;;;20.10;66.90;;;;;;5018183;28;20869;-51
2022/12/23 08:38:20;;;;;;;7.60;7.40;;;20.10;66.90;;;;;;5017602;28;20545;-51
2022/12/23 08:40:47;;;;;;;8.20;8.00;;;20.10;66.90;;;;;;5017484;28;20450;-52
2022/12/23 08:43:14;;;;;;;8.60;8.30;;;20.10;66.80;;;;;;5017111;28;20992;-51
2022/12/23 08:45:41;;;;;;;8.80;8.60;;;20.10;66.90;;;;;;5017825;28;20452;-51
2022/12/23 08:48:08;;;;;;;7.90;7.80;;;20.10;66.90;;;;;;5017352;28;20445;-51
2022/12/23 08:50:38;;;;;;;8.00;7.80;;;20.10;67.10;;;;;;5017307;28;20441;-52
2022/12/23 08:53:06;;;;;;;8.87;8.67;;;20.10;66.90;;;;;;5017400;28;20536;-53
2022/12/23 08:55:37;;;;;;;8.90;8.60;;;20.10;67.20;;;;;;5016991;28;20513;-54
2022/12/23 08:58:05;;;;;;;9.00;8.80;;;20.10;67.20;;;;;;5017389;28;20445;-55
2022/12/23 09:00:32;;;;;;;10.70;10.40;;;20.10;67.10;;;;;;5015873;28;20477;-51
2022/12/23 09:02:59;;;;;;;8.80;8.60;;;20.10;67.00;;;;;;5016624;28;21075;-52
2022/12/23 09:05:26;;;;;;;8.50;8.30;;;20.10;66.90;;;;;;5017111;28;20446;-51
2022/12/23 09:07:53;;;;;;;9.00;8.70;;;20.10;66.80;;;;;;5017398;28;20493;-51
2022/12/23 09:10:22;;;;;;;8.50;8.30;;;20.10;66.90;;;;;;5016857;28;20820;-52
2022/12/23 09:12:49;;;;;;;9.47;9.17;;;20.10;67.00;;;;;;5016841;28;20489;-53
2022/12/23 09:15:16;;;;;;;8.93;8.53;;;20.10;67.20;;;;;;5016583;28;20450;-52
2022/12/23 09:17:43;;;;;;;9.23;8.93;;;20.10;67.30;;;;;;5017062;28;20456;-51
2022/12/23 09:20:11;;;;;;;9.13;8.83;;;20.10;67.10;;;;;;5016135;28;20447;-52
2022/12/23 09:22:38;;;;;;;8.30;8.10;;;20.00;66.80;;;;;;5016602;28;20919;-51
2022/12/23 09:25:05;;;;;;;8.83;8.53;;;20.00;67.00;;;;;;5016196;28;20454;-54
2022/12/23 09:27:33;;;;;;;8.73;8.40;;;20.00;67.10;;;;;;5016561;28;20863;-51
2022/12/23 09:30:00;;;;;;;8.70;8.50;;;20.10;67.30;;;;;;5016785;28;20828;-51
2022/12/23 09:32:27;;;;;;;9.10;8.70;;;20.00;67.00;;;;;;5016814;28;20598;-53
2022/12/23 09:34:54;;;;;;;9.33;9.13;;;20.00;67.10;;;;;;5016917;28;20485;-51
2022/12/23 09:37:21;;;;;;;9.33;9.10;;;20.00;67.00;;;;;;5016214;28;20508;-53
2022/12/23 09:39:48;;;;;;;9.50;9.30;;;20.00;67.10;;;;;;5016934;28;20450;-51
2022/12/23 09:42:44;;;;;;;8.97;8.77;;;20.10;67.30;;;;;;5016537;28;20905;-51
2022/12/23 09:45:25;;;;;;;9.10;8.90;;;20.00;67.10;;;;;;5016887;28;20438;-53
2022/12/23 09:47:55;;;;;;;9.40;9.10;;;20.00;67.30;;;;;;5016749;28;20508;-54
2022/12/23 09:50:27;;;;;;;9.70;9.20;;;20.00;67.40;;;;;;5016671;28;20798;-53
2022/12/23 09:53:00;;;;;;;9.70;9.40;;;20.00;67.30;;;;;;5016296;28;20485;-51
2022/12/23 09:55:37;;;;;;;9.67;9.37;;;20.00;67.30;;;;;;5016589;28;20517;-51
2022/12/23 09:58:09;;;;;;;9.30;9.10;;;20.00;67.30;;;;;;5016356;28;20857;-52
2022/12/23 10:00:42;;;;;;;9.60;9.33;;;20.00;67.40;;;;;;5016254;28;20449;-54
2022/12/23 10:03:20;;;;;;;9.07;8.77;;;20.00;67.60;;;;;;5016333;28;20518;-51
2022/12/23 10:06:01;;;;;;;9.30;9.10;;;20.00;67.50;;;;;;5015829;28;20453;-51
2022/12/23 10:08:33;;;;;;;9.40;9.10;;;20.00;67.40;;;;;;5015836;28;20449;-51
2022/12/23 10:11:04;;;;;;;9.00;8.80;;;20.00;67.40;;;;;;5015867;28;20941;-52
2022/12/23 10:13:37;;;;;;;9.00;8.80;;;20.00;67.50;;;;;;5016581;28;20925;-52
2022/12/23 10:16:12;;;;;;;9.10;8.80;;;20.00;68.30;;;;;;5015630;28;20452;-51
2022/12/23 10:18:45;;;;;;;8.37;8.17;;;20.00;67.50;;;;;;5013802;28;20477;-54
2022/12/23 10:21:18;;;;;;;8.80;8.60;;;20.00;67.50;;;;;;5015738;28;20962;-52
2022/12/23 10:23:50;;;;;;;8.53;8.30;;;20.00;67.50;;;;;;5015712;28;20572;-54
2022/12/23 10:26:22;;;;;;;8.53;8.33;;;20.00;67.50;;;;;;5015786;28;20476;-53
2022/12/23 10:28:53;;;;;;;8.80;8.60;;;20.00;67.50;;;;;;4996206;28;20443;-51
2022/12/23 10:31:32;;;;;;;8.70;8.50;;;20.00;67.70;;;;;;4996444;28;20449;-51
2022/12/23 10:34:05;;;;;;;8.03;7.90;;;20.00;67.50;;;;;;4995852;28;20468;-52
2022/12/23 10:36:40;;;;;;;9.33;8.93;;;20.00;67.60;;;;;;4996120;28;20535;-51
2022/12/23 10:39:17;;;;;;;8.90;8.70;;;20.00;67.60;;;;;;5002102;28;20978;-53
2022/12/23 10:41:55;;;;;;;8.70;8.50;;;20.00;67.60;;;;;;5015048;28;20465;-51
2022/12/23 10:44:47;;;;;;;9.00;8.60;;;20.00;67.60;;;;;;5014583;28;20894;-51
2022/12/23 10:47:25;;;;;;;8.70;8.40;;;20.00;67.60;;;;;;5015426;28;20445;-51
2022/12/23 10:50:08;;;;;;;8.70;8.50;;;20.00;67.70;;;;;;5015424;28;20454;-56
2022/12/23 10:52:39;;;;;;;10.03;9.73;;;20.00;67.80;;;;;;5015021;28;20569;-56
2022/12/23 10:55:14;;;;;;;8.80;8.60;;;20.00;67.60;;;;;;5015122;28;20446;-53
2022/12/23 10:57:41;;;;;;;9.03;8.83;;;20.00;67.50;;;;;;5014945;28;20477;-54
2022/12/23 11:00:18;;;;;;;8.80;8.60;;;20.00;68.00;;;;;;5015314;28;20886;-51
2022/12/23 11:02:57;;;;;;;9.23;8.80;;;19.90;67.70;;;;;;5015294;28;20479;-51
2022/12/23 11:05:28;;;;;;;8.50;8.23;;;20.00;68.00;;;;;;5015259;28;20529;-51
2022/12/23 11:07:55;;;;;;;8.97;8.77;;;19.90;68.10;;;;;;5014804;28;20489;-51
2022/12/23 11:10:27;;;;;;;9.20;9.00;;;19.90;68.10;;;;;;5014459;28;20533;-51
2022/12/23 11:12:54;;;;;;;8.30;8.10;;;19.90;68.00;;;;;;5014537;28;20969;-52
2022/12/23 11:15:31;;;;;;;8.50;8.30;;;20.00;67.90;;;;;;5014118;28;20532;-52
2022/12/23 11:18:01;;;;;;;8.20;8.10;;;19.90;68.00;;;;;;5014532;28;20442;-52
2022/12/23 11:20:29;;;;;;;8.10;7.90;;;19.90;68.20;;;;;;5014216;28;20815;-55
2022/12/23 11:22:58;;;;;;;8.50;8.30;;;20.00;68.30;;;;;;5014422;28;20473;-55
2022/12/23 11:25:34;;;;;;;8.77;8.57;;;19.90;68.10;;;;;;5014330;28;20865;-53
2022/12/23 11:28:05;;;;;;;8.70;8.50;;;19.90;68.00;;;;;;5014029;28;20528;-51
2022/12/23 11:30:36;;;;;;;8.90;8.70;;;19.90;68.00;;;;;;5013954;28;20886;-54
2022/12/23 11:33:04;;;;;;;8.70;8.50;;;19.90;68.80;;;;;;5013948;28;20854;-52
2022/12/23 11:35:35;;;;;;;8.83;8.53;;;20.00;67.90;;;;;;5014021;28;20493;-50
2022/12/23 11:38:03;;;;;;;8.70;8.50;;;19.90;67.90;;;;;;5014617;28;20813;-50
2022/12/23 11:40:33;;;;;;;8.47;8.17;;;19.90;68.00;;;;;;5014067;28;20938;-53
2022/12/23 11:43:03;;;;;;;8.57;8.37;;;19.90;68.10;;;;;;5014368;28;20497;-50
2022/12/23 11:45:34;;;;;;;8.20;8.00;;;19.90;68.10;;;;;;5014550;28;21032;-50
2022/12/23 11:48:02;;;;;;;9.20;8.90;;;19.90;68.40;;;;;;5014464;28;20452;-52
2022/12/23 11:50:37;;;;;;;9.07;8.87;;;19.90;68.20;;;;;;5013944;28;20446;-52
2022/12/23 11:53:19;;;;;;;9.17;8.97;;;19.90;68.10;;;;;;5013352;28;20985;-50
2022/12/23 11:56:00;;;;;;;8.40;8.20;;;19.90;68.30;;;;;;5014763;28;20458;-50
2022/12/23 11:58:29;;;;;;;9.23;8.93;;;19.90;68.40;;;;;;5014126;28;20454;-53
2022/12/23 12:00:59;;;;;;;8.67;8.47;;;19.90;68.30;;;;;;5014070;28;20446;-51
2022/12/23 12:03:30;;;;;;;8.50;8.30;;;19.90;68.40;;;;;;5013928;28;20482;-50
2022/12/23 12:06:02;;;;;;;8.67;8.47;;;19.90;68.40;;;;;;5014451;28;20450;-53
2022/12/23 12:08:32;;;;;;;8.90;8.70;;;19.90;68.30;;;;;;5014581;28;20968;-51
2022/12/23 12:11:05;;;;;;;8.80;8.60;;;19.90;68.40;;;;;;5014040;28;20454;-53
2022/12/23 12:13:37;;;;;;;8.60;8.30;;;19.90;68.50;;;;;;5014617;28;20446;-52
2022/12/23 12:16:17;;;;;;;8.30;8.10;;;19.90;68.90;;;;;;5014169;28;20480;-53
2022/12/23 12:18:46;;;;;;;9.03;8.83;;;19.90;68.80;;;;;;5013723;28;20438;-54
2022/12/23 12:21:18;;;;;;;8.93;8.60;;;19.90;68.60;;;;;;5012875;28;20450;-55
2022/12/23 12:23:50;;;;;;;8.30;8.10;;;19.90;68.60;;;;;;5013578;28;20494;-53
2022/12/23 12:26:23;;;;;;;8.80;8.60;;;19.90;68.50;;;;;;5014155;28;20520;-52
2022/12/23 12:28:53;;;;;;;9.10;8.80;;;19.90;68.50;;;;;;5014057;28;20881;-55
2022/12/23 12:31:24;;;;;;;8.17;7.97;;;19.90;68.40;;;;;;5013186;28;20930;-54
2022/12/23 12:33:54;;;;;;;8.67;8.40;;;19.90;68.40;;;;;;5013353;28;20442;-51
2022/12/23 12:36:32;;;;;;;8.80;8.50;;;19.90;68.50;;;;;;5013855;28;20860;-50
2022/12/23 12:39:00;;;;;;;8.30;8.10;;;19.90;68.50;;;;;;5013648;28;20454;-50
2022/12/23 12:41:32;;;;;;;8.77;8.57;;;19.90;68.30;;;;;;5013489;28;20488;-50
2022/12/23 12:44:06;;;;;;;8.10;7.90;;;19.90;68.40;;;;;;5014111;28;20488;-52
2022/12/23 12:46:38;;;;;;;8.33;8.13;;;19.90;68.40;;;;;;5013771;28;20449;-51
2022/12/23 12:49:14;;;;;;;8.23;8.03;;;19.90;68.50;;;;;;5014112;28;20872;-51
2022/12/23 12:51:48;;;;;;;8.03;7.73;;;19.90;68.40;;;;;;5014026;28;20476;-51
2022/12/23 12:54:22;;;;;;;8.10;7.73;;;19.90;68.40;;;;;;5013387;28;20456;-53
2022/12/23 12:56:51;;;;;;;8.10;7.90;;;19.90;68.60;;;;;;5013801;28;20987;-54
2022/12/23 12:59:21;;;;;;;8.10;7.90;;;19.90;68.80;;;;;;5013201;28;20446;-53
2022/12/23 13:02:07;;;;;;;7.97;7.77;;;19.90;68.70;;;;;;5013313;28;20556;-51
2022/12/23 13:04:56;;;;;;;7.53;7.43;;;19.90;68.50;;;;;;5016044;28;20473;-52
2022/12/23 13:07:36;;;;;;;8.10;7.90;;;19.90;68.60;;;;;;5016674;28;20441;-52
2022/12/23 13:10:12;;;;;;;8.27;8.07;;;19.90;68.60;;;;;;5017275;28;20442;-51
2022/12/23 13:12:53;;;;;;;7.90;7.70;;;19.90;68.60;;;;;;5017188;28;20470;-51
2022/12/23 13:15:25;;;;;;;7.50;7.30;;;19.90;68.90;;;;;;5017237;28;20442;-52
2022/12/23 13:18:14;;;;;;;7.73;7.63;;;19.90;68.80;;;;;;5017170;28;20496;-51
2022/12/23 13:20:50;;;;;;;7.67;7.47;;;19.90;68.70;;;;;;4995973;28;20501;-52
2022/12/23 13:23:21;;;;;;;7.80;7.70;;;19.90;68.90;;;;;;4997863;28;20498;-53